sensor_id;sensor_type;location;lat;lon;timestamp;pressure;altitude;pressure_sealevel;temperature;humidity
72855;BME280;60991;51.278;22.550;2022-10-17T00:01:10;100149.44;;;15.32;62.70
72855;BME280;60991;51.278;22.550;2022-10-17T00:02:40;100142.72;;;15.30;62.66
72855;BME280;60991;51.278;22.550;2022-10-17T00:04:11;100140.22;;;15.23;63.23
72855;BME280;60991;51.278;22.550;2022-10-17T00:05:43;100146.91;;;15.20;63.11
72855;BME280;60991;51.278;22.550;2022-10-17T00:07:13;100151.72;;;15.23;62.98
72855;BME280;60991;51.278;22.550;2022-10-17T00:08:44;100145.63;;;15.28;62.87
72855;BME280;60991;51.278;22.550;2022-10-17T00:10:14;100150.44;;;15.26;62.82
72855;BME280;60991;51.278;22.550;2022-10-17T00:11:44;100152.19;;;15.15;63.44
72855;BME280;60991;51.278;22.550;2022-10-17T00:13:14;100153.81;;;15.16;63.15
72855;BME280;60991;51.278;22.550;2022-10-17T00:14:44;100155.91;;;15.14;63.33
72855;BME280;60991;51.278;22.550;2022-10-17T00:16:23;100153.84;;;15.21;63.21
72855;BME280;60991;51.278;22.550;2022-10-17T00:17:53;100157.06;;;15.23;62.82
72855;BME280;60991;51.278;22.550;2022-10-17T00:19:24;100161.75;;;15.11;63.46
72855;BME280;60991;51.278;22.550;2022-10-17T00:20:54;100155.28;;;15.07;63.66
72855;BME280;60991;51.278;22.550;2022-10-17T00:22:25;100155.47;;;15.01;63.85
72855;BME280;60991;51.278;22.550;2022-10-17T00:23:55;100165.59;;;14.99;63.94
72855;BME280;60991;51.278;22.550;2022-10-17T00:25:26;100154.09;;;14.98;63.80
72855;BME280;60991;51.278;22.550;2022-10-17T00:26:56;100154.41;;;15.02;63.94
72855;BME280;60991;51.278;22.550;2022-10-17T00:28:26;100153.09;;;15.04;63.58
72855;BME280;60991;51.278;22.550;2022-10-17T00:29:57;100155.47;;;15.01;63.59
72855;BME280;60991;51.278;22.550;2022-10-17T00:31:27;100157.00;;;14.97;63.76
72855;BME280;60991;51.278;22.550;2022-10-17T00:32:57;100150.63;;;14.98;63.95
72855;BME280;60991;51.278;22.550;2022-10-17T00:34:28;100162.59;;;14.95;63.86
72855;BME280;60991;51.278;22.550;2022-10-17T00:36:14;100156.13;;;14.91;64.04
72855;BME280;60991;51.278;22.550;2022-10-17T00:37:44;100157.81;;;14.97;64.04
72855;BME280;60991;51.278;22.550;2022-10-17T00:39:16;100161.78;;;14.95;63.96
72855;BME280;60991;51.278;22.550;2022-10-17T00:40:46;100155.31;;;14.90;64.15
72855;BME280;60991;51.278;22.550;2022-10-17T00:42:16;100157.59;;;14.99;63.84
72855;BME280;60991;51.278;22.550;2022-10-17T00:45:27;100160.50;;;14.97;63.80
72855;BME280;60991;51.278;22.550;2022-10-17T00:47:01;100154.94;;;15.04;63.76
72855;BME280;60991;51.278;22.550;2022-10-17T00:48:33;100153.78;;;14.95;64.08
72855;BME280;60991;51.278;22.550;2022-10-17T00:50:05;100152.16;;;14.94;64.34
72855;BME280;60991;51.278;22.550;2022-10-17T00:51:40;100155.41;;;14.96;63.81
72855;BME280;60991;51.278;22.550;2022-10-17T00:53:12;100156.44;;;14.95;64.09
72855;BME280;60991;51.278;22.550;2022-10-17T00:54:47;100156.44;;;14.95;64.09
72855;BME280;60991;51.278;22.550;2022-10-17T00:56:19;100151.91;;;14.95;64.09
72855;BME280;60991;51.278;22.550;2022-10-17T00:57:50;100152.66;;;14.90;64.25
72855;BME280;60991;51.278;22.550;2022-10-17T00:59:22;100162.16;;;14.81;64.51
72855;BME280;60991;51.278;22.550;2022-10-17T01:00:54;100155.25;;;14.85;64.19
72855;BME280;60991;51.278;22.550;2022-10-17T01:02:24;100154.13;;;14.81;64.44
72855;BME280;60991;51.278;22.550;2022-10-17T01:03:54;100149.28;;;14.78;64.56
72855;BME280;60991;51.278;22.550;2022-10-17T01:05:25;100155.19;;;14.80;64.80
72855;BME280;60991;51.278;22.550;2022-10-17T01:08:35;100159.03;;;14.89;64.22
72855;BME280;60991;51.278;22.550;2022-10-17T01:10:06;100151.28;;;14.88;64.21
72855;BME280;60991;51.278;22.550;2022-10-17T01:13:34;100154.44;;;14.85;64.35
72855;BME280;60991;51.278;22.550;2022-10-17T01:15:20;100152.53;;;14.80;64.53
72855;BME280;60991;51.278;22.550;2022-10-17T01:17:28;100152.28;;;14.82;64.26
72855;BME280;60991;51.278;22.550;2022-10-17T01:22:32;100167.41;;;14.76;64.72
72855;BME280;60991;51.278;22.550;2022-10-17T01:28:12;100178.47;;;14.63;64.99
72855;BME280;60991;51.278;22.550;2022-10-17T01:31:48;100192.13;;;14.50;65.17
72855;BME280;60991;51.278;22.550;2022-10-17T01:35:38;100198.63;;;14.54;65.02
72855;BME280;60991;51.278;22.550;2022-10-17T01:37:30;100188.66;;;14.49;65.09
72855;BME280;60991;51.278;22.550;2022-10-17T01:43:02;100197.00;;;14.53;65.37
72855;BME280;60991;51.278;22.550;2022-10-17T01:44:41;100195.22;;;14.42;65.97
72855;BME280;60991;51.278;22.550;2022-10-17T01:46:21;100199.16;;;14.39;65.98
72855;BME280;60991;51.278;22.550;2022-10-17T01:47:55;100204.03;;;14.42;65.93
72855;BME280;60991;51.278;22.550;2022-10-17T01:49:30;100208.72;;;14.52;65.44
72855;BME280;60991;51.278;22.550;2022-10-17T01:51:06;100211.69;;;14.39;65.51
72855;BME280;60991;51.278;22.550;2022-10-17T01:52:42;100212.69;;;14.49;65.61
72855;BME280;60991;51.278;22.550;2022-10-17T01:54:15;100213.50;;;14.50;65.40
72855;BME280;60991;51.278;22.550;2022-10-17T01:55:49;100212.69;;;14.49;65.64
72855;BME280;60991;51.278;22.550;2022-10-17T01:57:43;100212.44;;;14.51;65.32
72855;BME280;60991;51.278;22.550;2022-10-17T01:59:24;100212.31;;;14.41;66.04
72855;BME280;60991;51.278;22.550;2022-10-17T02:00:58;100203.69;;;14.39;65.61
72855;BME280;60991;51.278;22.550;2022-10-17T02:02:31;100197.88;;;14.42;65.73
72855;BME280;60991;51.278;22.550;2022-10-17T02:04:04;100197.53;;;14.38;66.16
72855;BME280;60991;51.278;22.550;2022-10-17T02:05:38;100204.03;;;14.42;65.64
72855;BME280;60991;51.278;22.550;2022-10-17T02:07:11;100196.28;;;14.41;65.45
72855;BME280;60991;51.278;22.550;2022-10-17T02:08:44;100186.97;;;14.43;65.80
72855;BME280;60991;51.278;22.550;2022-10-17T02:10:23;100196.28;;;14.29;66.09
72855;BME280;60991;51.278;22.550;2022-10-17T02:13:42;100187.00;;;14.32;65.91
72855;BME280;60991;51.278;22.550;2022-10-17T02:19:12;100195.66;;;14.22;66.35
72855;BME280;60991;51.278;22.550;2022-10-17T02:22:42;100190.94;;;14.29;66.18
72855;BME280;60991;51.278;22.550;2022-10-17T02:26:20;100180.22;;;14.24;66.59
72855;BME280;60991;51.278;22.550;2022-10-17T02:30:33;100195.41;;;14.24;66.69
72855;BME280;60991;51.278;22.550;2022-10-17T02:32:12;100203.44;;;14.24;66.94
72855;BME280;60991;51.278;22.550;2022-10-17T02:35:29;100213.06;;;14.25;66.68
72855;BME280;60991;51.278;22.550;2022-10-17T02:37:04;100209.91;;;14.28;66.74
72855;BME280;60991;51.278;22.550;2022-10-17T02:38:37;100205.53;;;14.38;66.20
72855;BME280;60991;51.278;22.550;2022-10-17T02:40:09;100209.41;;;14.31;66.18
72855;BME280;60991;51.278;22.550;2022-10-17T02:41:43;100206.38;;;14.10;67.00
72855;BME280;60991;51.278;22.550;2022-10-17T02:43:14;100210.69;;;14.11;67.23
72855;BME280;60991;51.278;22.550;2022-10-17T02:44:45;100204.38;;;14.17;66.73
72855;BME280;60991;51.278;22.550;2022-10-17T02:46:19;100205.88;;;14.25;66.55
72855;BME280;60991;51.278;22.550;2022-10-17T02:48:05;100212.16;;;14.19;66.58
72855;BME280;60991;51.278;22.550;2022-10-17T02:49:40;100214.94;;;14.24;66.57
72855;BME280;60991;51.278;22.550;2022-10-17T02:51:28;100217.50;;;14.19;66.77
72855;BME280;60991;51.278;22.550;2022-10-17T02:53:06;100213.84;;;14.08;66.90
72855;BME280;60991;51.278;22.550;2022-10-17T02:54:42;100211.59;;;14.17;66.76
72855;BME280;60991;51.278;22.550;2022-10-17T02:56:19;100221.31;;;14.23;66.68
72855;BME280;60991;51.278;22.550;2022-10-17T02:57:53;100216.34;;;14.15;66.78
72855;BME280;60991;51.278;22.550;2022-10-17T02:59:27;100215.31;;;14.16;66.34
72855;BME280;60991;51.278;22.550;2022-10-17T03:00:59;100228.41;;;14.17;66.67
72855;BME280;60991;51.278;22.550;2022-10-17T03:02:38;100226.31;;;14.19;66.45
72855;BME280;60991;51.278;22.550;2022-10-17T03:04:11;100218.03;;;14.04;67.18
72855;BME280;60991;51.278;22.550;2022-10-17T03:05:42;100214.91;;;14.07;66.78
72855;BME280;60991;51.278;22.550;2022-10-17T03:07:12;100224.09;;;14.00;67.19
72855;BME280;60991;51.278;22.550;2022-10-17T03:08:42;100217.13;;;13.99;67.17
72855;BME280;60991;51.278;22.550;2022-10-17T03:10:12;100221.19;;;14.01;66.91
72855;BME280;60991;51.278;22.550;2022-10-17T03:11:43;100221.44;;;14.00;67.16
72855;BME280;60991;51.278;22.550;2022-10-17T03:13:14;100225.94;;;13.99;67.33
72855;BME280;60991;51.278;22.550;2022-10-17T03:14:44;100225.72;;;14.01;67.06
72855;BME280;60991;51.278;22.550;2022-10-17T03:16:15;100236.06;;;13.97;66.98
72855;BME280;60991;51.278;22.550;2022-10-17T03:17:45;100234.44;;;13.96;67.38
72855;BME280;60991;51.278;22.550;2022-10-17T03:19:15;100234.66;;;13.95;67.05
72855;BME280;60991;51.278;22.550;2022-10-17T03:20:45;100228.84;;;13.98;67.14
72855;BME280;60991;51.278;22.550;2022-10-17T03:22:15;100228.81;;;13.81;67.48
72855;BME280;60991;51.278;22.550;2022-10-17T03:23:46;100225.78;;;13.89;67.59
72855;BME280;60991;51.278;22.550;2022-10-17T03:25:16;100225.44;;;13.85;67.75
72855;BME280;60991;51.278;22.550;2022-10-17T03:26:46;100224.28;;;13.81;67.55
72855;BME280;60991;51.278;22.550;2022-10-17T03:28:16;100225.34;;;13.80;67.82
72855;BME280;60991;51.278;22.550;2022-10-17T03:29:47;100230.78;;;13.85;67.95
72855;BME280;60991;51.278;22.550;2022-10-17T03:31:17;100225.81;;;13.77;67.63
72855;BME280;60991;51.278;22.550;2022-10-17T03:32:47;100219.63;;;13.89;67.41
72855;BME280;60991;51.278;22.550;2022-10-17T03:34:17;100221.78;;;13.92;67.37
72855;BME280;60991;51.278;22.550;2022-10-17T03:35:47;100224.22;;;13.93;67.55
72855;BME280;60991;51.278;22.550;2022-10-17T03:37:18;100232.97;;;13.89;67.54
72855;BME280;60991;51.278;22.550;2022-10-17T03:38:48;100229.84;;;13.80;67.85
72855;BME280;60991;51.278;22.550;2022-10-17T03:40:22;100228.63;;;13.71;67.82
72855;BME280;60991;51.278;22.550;2022-10-17T03:41:52;100227.09;;;13.75;67.81
72855;BME280;60991;51.278;22.550;2022-10-17T03:43:22;100235.59;;;13.72;67.99
72855;BME280;60991;51.278;22.550;2022-10-17T03:44:52;100234.28;;;13.74;67.76
72855;BME280;60991;51.278;22.550;2022-10-17T03:46:23;100231.59;;;13.74;67.80
72855;BME280;60991;51.278;22.550;2022-10-17T03:47:53;100240.53;;;13.80;67.72
72855;BME280;60991;51.278;22.550;2022-10-17T03:49:23;100235.91;;;13.75;67.90
72855;BME280;60991;51.278;22.550;2022-10-17T03:51:08;100241.00;;;13.77;67.87
72855;BME280;60991;51.278;22.550;2022-10-17T03:52:38;100239.16;;;13.77;67.98
72855;BME280;60991;51.278;22.550;2022-10-17T03:54:08;100230.56;;;13.75;67.84
72855;BME280;60991;51.278;22.550;2022-10-17T03:55:39;100235.09;;;13.75;67.57
72855;BME280;60991;51.278;22.550;2022-10-17T03:57:09;100236.53;;;13.66;68.17
72855;BME280;60991;51.278;22.550;2022-10-17T03:58:39;100238.50;;;13.59;68.41
72855;BME280;60991;51.278;22.550;2022-10-17T04:00:10;100241.03;;;13.65;68.37
72855;BME280;60991;51.278;22.550;2022-10-17T04:01:41;100231.78;;;13.56;68.63
72855;BME280;60991;51.278;22.550;2022-10-17T04:03:11;100235.97;;;13.52;68.56
72855;BME280;60991;51.278;22.550;2022-10-17T04:04:42;100230.25;;;13.60;68.58
72855;BME280;60991;51.278;22.550;2022-10-17T04:06:12;100236.88;;;13.58;68.56
72855;BME280;60991;51.278;22.550;2022-10-17T04:07:42;100223.78;;;13.56;68.60
72855;BME280;60991;51.278;22.550;2022-10-17T04:09:12;100236.56;;;13.54;68.53
72855;BME280;60991;51.278;22.550;2022-10-17T04:10:43;100233.19;;;13.47;69.10
72855;BME280;60991;51.278;22.550;2022-10-17T04:12:13;100236.88;;;13.58;68.56
72855;BME280;60991;51.278;22.550;2022-10-17T04:13:44;100246.06;;;13.50;68.79
72855;BME280;60991;51.278;22.550;2022-10-17T04:15:15;100244.81;;;13.52;68.87
72855;BME280;60991;51.278;22.550;2022-10-17T04:16:45;100244.41;;;13.61;68.54
72855;BME280;60991;51.278;22.550;2022-10-17T04:18:15;100245.22;;;13.61;68.29
72855;BME280;60991;51.278;22.550;2022-10-17T04:19:48;100253.69;;;13.58;68.43
72855;BME280;60991;51.278;22.550;2022-10-17T04:21:18;100255.31;;;13.59;68.43
72855;BME280;60991;51.278;22.550;2022-10-17T04:22:48;100251.94;;;13.64;67.94
72855;BME280;60991;51.278;22.550;2022-10-17T04:24:18;100259.84;;;13.59;68.23
72855;BME280;60991;51.278;22.550;2022-10-17T04:25:49;100258.69;;;13.55;68.09
72855;BME280;60991;51.278;22.550;2022-10-17T04:27:19;100255.44;;;13.64;68.22
72855;BME280;60991;51.278;22.550;2022-10-17T04:28:50;100257.44;;;13.45;68.64
72855;BME280;60991;51.278;22.550;2022-10-17T04:30:20;100247.13;;;13.37;69.24
72855;BME280;60991;51.278;22.550;2022-10-17T04:31:50;100245.03;;;13.39;68.82
72855;BME280;60991;51.278;22.550;2022-10-17T04:33:21;100250.25;;;13.46;68.60
72855;BME280;60991;51.278;22.550;2022-10-17T04:34:51;100256.97;;;13.48;68.15
72855;BME280;60991;51.278;22.550;2022-10-17T04:36:21;100256.28;;;13.53;68.44
72855;BME280;60991;51.278;22.550;2022-10-17T04:37:51;100263.69;;;13.51;68.57
72855;BME280;60991;51.278;22.550;2022-10-17T04:39:22;100269.38;;;13.43;68.93
72855;BME280;60991;51.278;22.550;2022-10-17T04:40:52;100269.63;;;13.30;69.01
72855;BME280;60991;51.278;22.550;2022-10-17T04:42:22;100270.88;;;13.39;68.59
72855;BME280;60991;51.278;22.550;2022-10-17T04:43:53;100277.41;;;13.31;68.98
72855;BME280;60991;51.278;22.550;2022-10-17T04:45:23;100268.84;;;13.29;69.53
72855;BME280;60991;51.278;22.550;2022-10-17T04:46:53;100275.22;;;13.28;69.36
72855;BME280;60991;51.278;22.550;2022-10-17T04:48:23;100269.41;;;13.31;69.46
72855;BME280;60991;51.278;22.550;2022-10-17T04:49:54;100277.50;;;13.36;69.30
72855;BME280;60991;51.278;22.550;2022-10-17T04:51:24;100276.94;;;13.34;68.97
72855;BME280;60991;51.278;22.550;2022-10-17T04:52:54;100276.94;;;13.34;69.32
72855;BME280;60991;51.278;22.550;2022-10-17T04:54:24;100277.66;;;13.30;69.29
72855;BME280;60991;51.278;22.550;2022-10-17T04:55:55;100284.03;;;13.29;69.25
72855;BME280;60991;51.278;22.550;2022-10-17T04:57:25;100285.28;;;13.14;69.61
72855;BME280;60991;51.278;22.550;2022-10-17T04:58:57;100282.28;;;13.23;69.40
72855;BME280;60991;51.278;22.550;2022-10-17T05:00:28;100292.72;;;13.24;69.39
72855;BME280;60991;51.278;22.550;2022-10-17T05:01:58;100294.22;;;13.20;69.83
72855;BME280;60991;51.278;22.550;2022-10-17T05:03:28;100288.19;;;13.25;69.36
72855;BME280;60991;51.278;22.550;2022-10-17T05:04:58;100293.88;;;13.28;69.44
72855;BME280;60991;51.278;22.550;2022-10-17T05:06:28;100290.75;;;13.31;69.28
72855;BME280;60991;51.278;22.550;2022-10-17T05:07:59;100292.47;;;13.26;69.50
72855;BME280;60991;51.278;22.550;2022-10-17T05:09:32;100295.16;;;13.26;69.52
72855;BME280;60991;51.278;22.550;2022-10-17T05:11:02;100309.06;;;13.28;69.47
72855;BME280;60991;51.278;22.550;2022-10-17T05:12:33;100305.81;;;13.26;69.43
72855;BME280;60991;51.278;22.550;2022-10-17T05:14:03;100312.63;;;13.22;69.52
72855;BME280;60991;51.278;22.550;2022-10-17T05:15:34;100303.34;;;13.12;70.00
72855;BME280;60991;51.278;22.550;2022-10-17T05:17:05;100297.00;;;13.25;69.81
72855;BME280;60991;51.278;22.550;2022-10-17T05:18:35;100312.19;;;13.25;70.07
72855;BME280;60991;51.278;22.550;2022-10-17T05:20:06;100320.28;;;13.18;69.82
72855;BME280;60991;51.278;22.550;2022-10-17T05:21:36;100313.09;;;13.18;70.01
72855;BME280;60991;51.278;22.550;2022-10-17T05:23:06;100327.72;;;13.16;70.28
72855;BME280;60991;51.278;22.550;2022-10-17T05:24:37;100324.81;;;13.17;70.11
72855;BME280;60991;51.278;22.550;2022-10-17T05:32:51;100318.44;;;13.30;69.85
72855;BME280;60991;51.278;22.550;2022-10-17T05:34:22;100323.19;;;13.28;70.02
72855;BME280;60991;51.278;22.550;2022-10-17T05:35:52;100326.22;;;13.32;69.77
72855;BME280;60991;51.278;22.550;2022-10-17T05:37:22;100324.94;;;13.34;69.77
72855;BME280;60991;51.278;22.550;2022-10-17T05:38:52;100326.31;;;13.48;69.45
72855;BME280;60991;51.278;22.550;2022-10-17T05:40:23;100325.84;;;13.40;69.52
72855;BME280;60991;51.278;22.550;2022-10-17T05:41:53;100334.09;;;13.50;69.10
72855;BME280;60991;51.278;22.550;2022-10-17T05:43:23;100320.19;;;13.48;69.22
72855;BME280;60991;51.278;22.550;2022-10-17T05:44:54;100323.31;;;13.45;69.15
72855;BME280;60991;51.278;22.550;2022-10-17T05:46:24;100334.34;;;13.48;69.35
72855;BME280;60991;51.278;22.550;2022-10-17T05:47:54;100342.09;;;13.50;69.21
72855;BME280;60991;51.278;22.550;2022-10-17T05:49:24;100351.28;;;13.54;69.29
72855;BME280;60991;51.278;22.550;2022-10-17T05:51:00;100352.19;;;13.48;69.39
72855;BME280;60991;51.278;22.550;2022-10-17T05:52:30;100359.38;;;13.59;69.58
72855;BME280;60991;51.278;22.550;2022-10-17T05:54:00;100362.41;;;13.51;69.68
72855;BME280;60991;51.278;22.550;2022-10-17T05:55:31;100366.44;;;13.65;68.76
72855;BME280;60991;51.278;22.550;2022-10-17T05:57:01;100374.34;;;13.72;68.59
72855;BME280;60991;51.278;22.550;2022-10-17T05:58:31;100372.47;;;13.61;68.99
72855;BME280;60991;51.278;22.550;2022-10-17T06:00:03;100373.63;;;13.65;69.37
72855;BME280;60991;51.278;22.550;2022-10-17T06:01:33;100377.00;;;13.60;69.47
72855;BME280;60991;51.278;22.550;2022-10-17T06:03:03;100367.38;;;13.71;69.06
72855;BME280;60991;51.278;22.550;2022-10-17T06:04:33;100367.00;;;13.79;68.55
72855;BME280;60991;51.278;22.550;2022-10-17T06:11:20;100359.59;;;13.81;68.53
72855;BME280;60991;51.278;22.550;2022-10-17T06:12:50;100346.34;;;13.86;68.23
72855;BME280;60991;51.278;22.550;2022-10-17T06:14:20;100362.47;;;13.79;68.87
72855;BME280;60991;51.278;22.550;2022-10-17T06:15:50;100358.53;;;13.82;68.27
72855;BME280;60991;51.278;22.550;2022-10-17T06:17:21;100360.50;;;13.86;68.44
72855;BME280;60991;51.278;22.550;2022-10-17T06:18:51;100358.19;;;13.90;68.52
72855;BME280;60991;51.278;22.550;2022-10-17T06:20:21;100364.47;;;13.84;68.72
72855;BME280;60991;51.278;22.550;2022-10-17T06:21:52;100359.47;;;13.88;68.74
72855;BME280;60991;51.278;22.550;2022-10-17T06:23:22;100362.72;;;13.90;68.74
72855;BME280;60991;51.278;22.550;2022-10-17T06:24:52;100371.97;;;13.99;68.43
72855;BME280;60991;51.278;22.550;2022-10-17T06:26:22;100375.66;;;14.09;68.00
72855;BME280;60991;51.278;22.550;2022-10-17T06:27:52;100384.22;;;14.11;67.73
72855;BME280;60991;51.278;22.550;2022-10-17T06:29:23;100391.41;;;14.23;67.77
72855;BME280;60991;51.278;22.550;2022-10-17T06:30:53;100395.41;;;14.08;68.50
72855;BME280;60991;51.278;22.550;2022-10-17T06:32:23;100391.06;;;14.19;67.84
72855;BME280;60991;51.278;22.550;2022-10-17T06:33:54;100390.47;;;14.29;67.54
72855;BME280;60991;51.278;22.550;2022-10-17T06:35:24;100386.72;;;14.30;67.18
72855;BME280;60991;51.278;22.550;2022-10-17T06:36:54;100387.09;;;14.33;66.92
72855;BME280;60991;51.278;22.550;2022-10-17T06:38:25;100388.69;;;14.34;67.25
72855;BME280;60991;51.278;22.550;2022-10-17T06:39:55;100396.47;;;14.36;67.28
72855;BME280;60991;51.278;22.550;2022-10-17T06:41:25;100399.38;;;14.34;67.14
72855;BME280;60991;51.278;22.550;2022-10-17T06:42:55;100408.13;;;14.41;67.32
72855;BME280;60991;51.278;22.550;2022-10-17T06:44:26;100405.22;;;14.43;67.45
72855;BME280;60991;51.278;22.550;2022-10-17T06:45:56;100409.34;;;14.50;67.11
72855;BME280;60991;51.278;22.550;2022-10-17T06:47:26;100407.25;;;14.52;67.40
72855;BME280;60991;51.278;22.550;2022-10-17T06:55:37;100422.63;;;14.74;66.70
72855;BME280;60991;51.278;22.550;2022-10-17T06:57:07;100429.84;;;14.73;66.76
72855;BME280;60991;51.278;22.550;2022-10-17T06:58:38;100422.16;;;14.77;66.53
72855;BME280;60991;51.278;22.550;2022-10-17T07:00:09;100421.91;;;14.78;66.48
72855;BME280;60991;51.278;22.550;2022-10-17T07:21:42;100457.25;;;15.42;65.28
72855;BME280;60991;51.278;22.550;2022-10-17T07:23:12;100452.06;;;15.36;65.73
72855;BME280;60991;51.278;22.550;2022-10-17T09:21:43;100469.00;;;19.31;56.31
72855;BME280;60991;51.278;22.550;2022-10-17T09:23:17;100469.56;;;19.44;55.99
72855;BME280;60991;51.278;22.550;2022-10-17T09:48:21;100483.25;;;20.18;54.05
72855;BME280;60991;51.278;22.550;2022-10-17T10:14:55;100500.50;;;20.92;51.99
72855;BME280;60991;51.278;22.550;2022-10-17T10:16:30;100498.28;;;21.04;51.20
72855;BME280;60991;51.278;22.550;2022-10-17T10:18:01;100497.75;;;21.02;51.49
72855;BME280;60991;51.278;22.550;2022-10-17T10:19:37;100497.00;;;20.91;52.50
72855;BME280;60991;51.278;22.550;2022-10-17T10:21:19;100500.41;;;21.07;51.61
72855;BME280;60991;51.278;22.550;2022-10-17T11:51:18;100442.66;;;22.66;47.99
72855;BME280;60991;51.278;22.550;2022-10-17T11:52:57;100435.81;;;22.74;48.10
72855;BME280;60991;51.278;22.550;2022-10-17T11:54:37;100442.31;;;22.73;48.28
72855;BME280;60991;51.278;22.550;2022-10-17T11:59:51;100431.97;;;22.99;46.99
72855;BME280;60991;51.278;22.550;2022-10-17T12:01:37;100434.38;;;23.00;46.71
72855;BME280;60991;51.278;22.550;2022-10-17T12:05:32;100428.19;;;23.13;46.98
72855;BME280;60991;51.278;22.550;2022-10-17T12:07:21;100424.75;;;23.08;47.38
72855;BME280;60991;51.278;22.550;2022-10-17T12:15:30;100429.78;;;23.33;47.34
72855;BME280;60991;51.278;22.550;2022-10-17T12:17:01;100427.97;;;23.42;47.08
72855;BME280;60991;51.278;22.550;2022-10-17T12:26:53;100405.38;;;23.52;46.09
72855;BME280;60991;51.278;22.550;2022-10-17T12:28:41;100408.09;;;23.66;45.68
72855;BME280;60991;51.278;22.550;2022-10-17T12:30:21;100400.88;;;23.75;45.60
72855;BME280;60991;51.278;22.550;2022-10-17T12:31:52;100406.59;;;23.73;45.41
72855;BME280;60991;51.278;22.550;2022-10-17T12:34:56;100403.59;;;23.75;45.80
72855;BME280;60991;51.278;22.550;2022-10-17T12:41:07;100400.56;;;23.76;45.69
72855;BME280;60991;51.278;22.550;2022-10-17T12:47:37;100394.34;;;24.31;43.76
72855;BME280;60991;51.278;22.550;2022-10-17T12:51:15;100401.22;;;24.28;44.09
72855;BME280;60991;51.278;22.550;2022-10-17T12:52:59;100405.91;;;24.23;44.52
72855;BME280;60991;51.278;22.550;2022-10-17T12:54:38;100405.19;;;24.44;43.61
72855;BME280;60991;51.278;22.550;2022-10-17T12:56:09;100405.06;;;24.49;43.56
72855;BME280;60991;51.278;22.550;2022-10-17T12:57:46;100408.22;;;24.43;44.01
72855;BME280;60991;51.278;22.550;2022-10-17T12:59:23;100406.69;;;24.50;44.08
72855;BME280;60991;51.278;22.550;2022-10-17T13:00:55;100401.84;;;24.61;43.39
72855;BME280;60991;51.278;22.550;2022-10-17T13:02:27;100403.84;;;24.56;43.83
72855;BME280;60991;51.278;22.550;2022-10-17T13:04:00;100399.19;;;24.70;43.64
72855;BME280;60991;51.278;22.550;2022-10-17T13:05:34;100405.69;;;24.82;43.74
72855;BME280;60991;51.278;22.550;2022-10-17T13:07:04;100394.59;;;24.93;43.29
72855;BME280;60991;51.278;22.550;2022-10-17T13:08:44;100393.09;;;25.00;42.96
72855;BME280;60991;51.278;22.550;2022-10-17T13:10:23;100398.13;;;25.38;41.99
72855;BME280;60991;51.278;22.550;2022-10-17T13:11:58;100389.56;;;25.75;41.81
72855;BME280;60991;51.278;22.550;2022-10-17T13:15:05;100403.53;;;26.74;39.81
72855;BME280;60991;51.278;22.550;2022-10-17T13:16:50;100398.06;;;27.43;38.63
72855;BME280;60991;51.278;22.550;2022-10-17T13:18:25;100390.50;;;28.24;37.97
72855;BME280;60991;51.278;22.550;2022-10-17T13:19:56;100395.13;;;28.95;35.83
72855;BME280;60991;51.278;22.550;2022-10-17T13:21:27;100390.00;;;29.59;34.78
72855;BME280;60991;51.278;22.550;2022-10-17T13:22:57;100393.66;;;29.76;33.55
72855;BME280;60991;51.278;22.550;2022-10-17T13:24:29;100386.59;;;30.36;33.36
72855;BME280;60991;51.278;22.550;2022-10-17T13:26:20;100385.22;;;30.82;31.67
72855;BME280;60991;51.278;22.550;2022-10-17T13:28:03;100384.13;;;30.98;31.64
72855;BME280;60991;51.278;22.550;2022-10-17T13:29:33;100386.50;;;31.28;31.03
72855;BME280;60991;51.278;22.550;2022-10-17T13:31:04;100381.84;;;31.44;30.67
72855;BME280;60991;51.278;22.550;2022-10-17T13:32:37;100387.44;;;31.79;29.89
72855;BME280;60991;51.278;22.550;2022-10-17T13:34:20;100387.25;;;32.04;29.30
72855;BME280;60991;51.278;22.550;2022-10-17T13:35:50;100388.13;;;32.23;29.91
72855;BME280;60991;51.278;22.550;2022-10-17T13:37:20;100378.84;;;32.47;29.29
72855;BME280;60991;51.278;22.550;2022-10-17T13:38:51;100380.41;;;32.67;29.70
72855;BME280;60991;51.278;22.550;2022-10-17T13:43:35;100385.88;;;33.02;28.34
72855;BME280;60991;51.278;22.550;2022-10-17T13:45:28;100377.38;;;33.11;28.27
72855;BME280;60991;51.278;22.550;2022-10-17T13:53:39;100373.75;;;32.68;28.22
72855;BME280;60991;51.278;22.550;2022-10-17T13:55:17;100373.47;;;32.54;28.29
72855;BME280;60991;51.278;22.550;2022-10-17T13:56:54;100367.84;;;32.47;28.14
72855;BME280;60991;51.278;22.550;2022-10-17T13:58:28;100369.47;;;32.32;28.90
72855;BME280;60991;51.278;22.550;2022-10-17T14:01:45;100365.34;;;32.07;29.03
72855;BME280;60991;51.278;22.550;2022-10-17T14:03:15;100365.94;;;32.16;29.49
72855;BME280;60991;51.278;22.550;2022-10-17T14:04:46;100362.00;;;31.98;28.88
72855;BME280;60991;51.278;22.550;2022-10-17T14:07:56;100368.66;;;31.50;29.78
72855;BME280;60991;51.278;22.550;2022-10-17T14:09:29;100353.41;;;31.37;30.07
72855;BME280;60991;51.278;22.550;2022-10-17T14:11:00;100363.91;;;31.19;30.13
72855;BME280;60991;51.278;22.550;2022-10-17T14:12:32;100366.66;;;30.91;30.86
72855;BME280;60991;51.278;22.550;2022-10-17T14:14:05;100363.53;;;30.37;31.33
72855;BME280;60991;51.278;22.550;2022-10-17T14:15:36;100366.28;;;29.88;32.27